createdAt,value
2023-01-19T01:33:57.175Z,26.50
2023-01-19T01:36:24.576Z,26.60
2023-01-19T01:38:51.767Z,26.30
2023-01-19T01:41:20.568Z,26.00
2023-01-19T01:43:56.610Z,26.50
2023-01-19T01:46:23.623Z,25.70
2023-01-19T01:49:10.860Z,26.60
2023-01-19T01:51:42.733Z,26.20
2023-01-19T01:54:27.174Z,24.20
2023-01-19T01:56:55.692Z,21.70
2023-01-19T01:59:28.192Z,23.00
2023-01-19T02:02:18.801Z,21.60
2023-01-19T02:05:06.864Z,20.60
2023-01-19T02:07:57.503Z,20.20
2023-01-19T02:10:42.993Z,20.20
2023-01-19T02:13:21.957Z,18.20
2023-01-19T02:15:56.633Z,16.70
2023-01-19T02:18:25.745Z,16.90
2023-01-19T02:21:08.567Z,18.90
2023-01-19T02:23:41.519Z,15.70
2023-01-19T02:26:09.755Z,16.80
2023-01-19T02:28:39.056Z,17.10
2023-01-19T02:31:06.519Z,15.20
2023-01-19T02:33:33.480Z,14.40
2023-01-19T02:36:00.457Z,12.90
2023-01-19T02:38:27.714Z,13.90
2023-01-19T02:40:55.995Z,14.50
2023-01-19T02:43:22.916Z,14.00
2023-01-19T02:45:50.206Z,13.20
2023-01-19T02:48:19.029Z,15.70
2023-01-19T02:50:47.656Z,17.30
2023-01-19T02:53:29.715Z,17.20
2023-01-19T02:56:25.439Z,16.70
2023-01-19T02:59:09.181Z,16.00
2023-01-19T03:01:55.064Z,15.80
2023-01-19T03:04:50.033Z,16.90
2023-01-19T03:07:31.637Z,15.10
2023-01-19T03:10:29.435Z,16.70
2023-01-19T03:13:14.726Z,17.60
2023-01-19T03:15:54.433Z,18.90
2023-01-19T03:18:23.261Z,17.40
2023-01-19T03:20:51.390Z,17.50
2023-01-19T03:23:18.342Z,17.70
2023-01-19T03:25:45.885Z,17.80
2023-01-19T03:28:12.830Z,16.20
2023-01-19T03:30:42.558Z,15.40
2023-01-19T03:33:13.248Z,13.30
2023-01-19T03:35:42.106Z,13.90
2023-01-19T03:38:12.232Z,13.70
2023-01-19T03:40:39.277Z,14.00
2023-01-19T03:43:06.354Z,13.70
2023-01-19T03:45:33.639Z,14.40
2023-01-19T03:48:00.685Z,14.40
2023-01-19T03:50:29.807Z,14.60
2023-01-19T03:53:09.008Z,14.30
2023-01-19T03:55:37.075Z,13.80
2023-01-19T03:58:04.092Z,12.50
2023-01-19T04:00:31.586Z,13.60
2023-01-19T04:02:59.143Z,13.00
2023-01-19T04:05:26.262Z,13.10
2023-01-19T04:07:53.363Z,13.20
2023-01-19T04:10:20.668Z,13.80
2023-01-19T04:12:47.731Z,13.60
2023-01-19T04:15:14.799Z,14.40
2023-01-19T04:17:42.036Z,16.30
2023-01-19T04:20:09.537Z,18.60
2023-01-19T04:22:36.564Z,18.40
2023-01-19T04:25:03.634Z,21.50
2023-01-19T04:27:30.582Z,19.20
2023-01-19T04:29:57.530Z,19.30
2023-01-19T04:32:24.571Z,17.20
2023-01-19T04:34:51.875Z,18.30
2023-01-19T04:37:18.810Z,20.10
2023-01-19T04:39:45.747Z,19.30
2023-01-19T04:42:13.144Z,21.80
2023-01-19T04:44:40.132Z,22.10
2023-01-19T04:47:07.179Z,20.90
2023-01-19T04:49:34.178Z,20.30
2023-01-19T04:52:01.398Z,23.80
2023-01-19T04:54:28.580Z,25.20
2023-01-19T04:56:55.550Z,26.90
2023-01-19T04:59:22.468Z,23.00
2023-01-19T05:01:49.475Z,23.50
2023-01-19T05:04:16.535Z,25.10
2023-01-19T05:06:43.515Z,24.90
2023-01-19T05:09:13.357Z,25.80
2023-01-19T05:11:40.347Z,24.90
2023-01-19T05:14:07.450Z,23.60
2023-01-19T05:16:34.860Z,23.00
2023-01-19T05:19:01.738Z,25.00
2023-01-19T05:21:28.730Z,27.20
2023-01-19T05:23:55.712Z,29.90
2023-01-19T05:26:22.740Z,29.00
2023-01-19T05:28:50.445Z,31.20
2023-01-19T05:31:18.789Z,27.70
2023-01-19T05:33:46.549Z,35.70
2023-01-19T05:36:13.495Z,36.10
2023-01-19T05:38:40.491Z,37.80
2023-01-19T05:41:07.438Z,33.80
2023-01-19T05:43:34.346Z,37.80
2023-01-19T05:46:01.325Z,37.50
2023-01-19T05:48:28.307Z,38.80
2023-01-19T05:50:59.409Z,42.80
2023-01-19T05:53:27.100Z,41.10
2023-01-19T05:55:54.258Z,40.60
2023-01-19T05:58:21.253Z,43.20
2023-01-19T06:00:48.404Z,47.90
2023-01-19T06:03:15.439Z,49.60
2023-01-19T06:05:42.508Z,48.30
2023-01-19T06:08:09.618Z,53.20
2023-01-19T06:10:36.721Z,38.60
2023-01-19T06:13:04.000Z,28.20
2023-01-19T06:15:31.076Z,22.30
2023-01-19T06:17:57.991Z,22.60
2023-01-19T06:20:25.009Z,32.80
2023-01-19T06:22:52.150Z,24.50
2023-01-19T06:25:19.147Z,19.80
2023-01-19T06:27:46.291Z,19.60
2023-01-19T06:30:13.843Z,21.00
2023-01-19T06:32:40.912Z,30.30
2023-01-19T06:35:08.256Z,30.20
2023-01-19T06:37:35.792Z,28.70
2023-01-19T06:40:02.995Z,35.00
2023-01-19T06:42:29.947Z,36.00
2023-01-19T06:44:56.921Z,37.50
2023-01-19T06:47:24.099Z,32.50
2023-01-19T08:52:52.459Z,32.70
2023-01-19T08:55:19.571Z,25.80
2023-01-19T08:57:46.350Z,26.30
2023-01-19T09:00:13.926Z,25.00
2023-01-19T09:02:41.031Z,27.20
2023-01-19T09:05:07.909Z,34.20
2023-01-19T09:07:35.775Z,34.60
2023-01-19T09:10:07.986Z,25.40
2023-01-19T09:12:35.975Z,21.70
2023-01-19T09:15:04.558Z,26.70
2023-01-19T09:17:31.917Z,28.20
2023-01-19T09:19:58.744Z,29.60
2023-01-19T09:22:25.936Z,24.80
2023-01-19T09:24:53.000Z,23.80
2023-01-19T09:27:19.924Z,23.50
2023-01-19T09:29:51.990Z,20.70
2023-01-19T09:32:20.095Z,18.80
2023-01-19T09:34:47.340Z,20.00
2023-01-19T09:37:15.602Z,23.10
2023-01-19T09:39:42.584Z,23.20
2023-01-19T09:42:33.488Z,19.80
2023-01-19T09:45:00.248Z,18.30
2023-01-19T09:47:28.236Z,20.20
2023-01-19T09:49:58.284Z,19.20
2023-01-19T09:52:25.302Z,21.70
2023-01-19T09:54:56.433Z,21.80
2023-01-19T09:57:24.605Z,23.90
2023-01-19T09:59:57.286Z,22.60
2023-01-19T10:02:24.152Z,21.40
2023-01-19T10:05:09.895Z,18.20
2023-01-19T10:07:47.991Z,18.50
2023-01-19T10:10:25.701Z,19.00
2023-01-19T10:13:04.090Z,21.60
2023-01-19T10:15:46.544Z,19.90
2023-01-19T10:18:25.645Z,19.40
2023-01-19T10:21:12.518Z,19.70
2023-01-19T10:23:51.638Z,20.80
2023-01-19T10:26:23.957Z,22.40
2023-01-19T10:29:00.817Z,28.20
2023-01-19T10:31:27.694Z,24.90
2023-01-19T10:33:55.129Z,21.00
2023-01-19T10:36:35.403Z,21.50
2023-01-19T10:39:05.884Z,21.80
2023-01-19T10:41:40.464Z,21.00
2023-01-19T10:44:08.924Z,20.80
2023-01-19T10:46:46.243Z,22.70
2023-01-19T10:49:26.271Z,21.40
2023-01-19T10:51:54.781Z,23.10
2023-01-19T10:54:21.822Z,21.10
2023-01-19T10:57:02.324Z,25.10
2023-01-19T10:59:44.688Z,21.70
2023-01-19T11:02:20.706Z,22.60
2023-01-19T11:04:50.050Z,20.90
2023-01-19T11:07:27.402Z,24.70
2023-01-19T11:10:15.902Z,21.50
2023-01-19T11:12:43.561Z,24.00
2023-01-19T11:15:20.340Z,23.00
2023-01-19T11:17:50.100Z,27.50
2023-01-19T11:20:24.772Z,25.00
2023-01-19T11:23:33.330Z,28.10
2023-01-19T11:26:01.673Z,27.90
2023-01-19T11:28:35.073Z,29.00
2023-01-19T11:31:24.186Z,28.40
2023-01-19T11:33:52.110Z,29.20
2023-01-19T11:36:21.742Z,30.20
2023-01-19T11:38:50.759Z,28.70
2023-01-19T11:41:18.944Z,27.10
2023-01-19T11:43:49.245Z,25.70
2023-01-19T11:46:16.576Z,25.60
2023-01-19T11:48:56.827Z,25.80
2023-01-19T11:51:24.970Z,25.60
2023-01-19T11:53:52.750Z,27.90
2023-01-19T11:56:22.696Z,25.10
2023-01-19T11:58:49.641Z,28.40
2023-01-19T12:01:30.022Z,31.30
2023-01-19T12:04:36.667Z,32.40
2023-01-19T12:07:09.546Z,33.00
2023-01-19T12:09:50.318Z,36.50
2023-01-19T12:12:30.046Z,35.90
2023-01-19T12:15:20.640Z,33.20
2023-01-19T12:17:53.169Z,40.00
2023-01-19T12:20:31.329Z,42.50
2023-01-19T12:22:59.696Z,44.90
2023-01-19T12:25:36.739Z,48.80
2023-01-19T12:28:06.161Z,50.70
2023-01-19T12:30:34.454Z,52.50
2023-01-19T12:33:23.110Z,52.10
2023-01-19T12:35:53.190Z,53.80
2023-01-19T12:38:29.394Z,47.10
2023-01-19T12:41:14.840Z,41.50
2023-01-19T12:43:42.046Z,39.40
2023-01-19T12:46:25.302Z,37.60
2023-01-19T12:48:52.694Z,33.60
2023-01-19T12:51:25.648Z,30.50
2023-01-19T12:53:57.323Z,32.20
2023-01-19T12:56:29.396Z,33.70
2023-01-19T12:58:56.590Z,32.50
2023-01-19T13:01:24.621Z,35.70
2023-01-19T13:04:09.047Z,37.10
2023-01-19T13:06:48.645Z,40.50
2023-01-19T13:09:31.989Z,41.30
2023-01-19T13:12:28.451Z,49.80
2023-01-19T13:15:27.305Z,53.80
2023-01-19T13:17:54.607Z,50.50
2023-01-19T13:20:23.426Z,49.20
2023-01-19T13:23:12.508Z,45.30
2023-01-19T13:25:39.800Z,41.60
2023-01-19T13:28:08.562Z,40.50
2023-01-19T13:30:35.680Z,35.80
2023-01-19T13:33:09.869Z,38.10
2023-01-19T13:35:36.999Z,31.10
2023-01-19T13:38:03.843Z,33.70
2023-01-19T13:40:38.103Z,31.40
2023-01-19T13:43:08.703Z,39.60
2023-01-19T13:45:37.634Z,44.80
2023-01-19T13:48:06.234Z,42.10
2023-01-19T13:50:35.231Z,46.90
2023-01-19T13:53:04.089Z,45.90
2023-01-19T13:55:31.112Z,45.60
2023-01-19T13:57:58.106Z,44.10
2023-01-19T14:00:26.527Z,44.30
2023-01-19T14:02:56.621Z,49.80
2023-01-19T14:05:25.195Z,44.40
2023-01-19T14:08:08.416Z,46.20
2023-01-19T14:10:45.950Z,44.10
2023-01-19T14:13:17.331Z,51.30
2023-01-19T14:15:44.613Z,49.30
2023-01-19T14:18:17.853Z,53.40
2023-01-19T14:20:55.108Z,56.00
2023-01-19T14:23:50.708Z,50.50
2023-01-19T14:26:48.447Z,55.40
2023-01-19T14:29:16.654Z,60.00
2023-01-19T14:31:47.095Z,57.00
2023-01-19T14:34:39.538Z,61.40
2023-01-19T14:37:26.482Z,50.60
2023-01-19T14:39:59.937Z,48.10
2023-01-19T14:42:49.976Z,45.40
2023-01-19T14:45:24.970Z,34.40
2023-01-19T14:48:18.173Z,33.10
2023-01-19T14:50:57.685Z,31.60
2023-01-19T14:53:29.566Z,25.00
2023-01-19T14:55:58.935Z,21.50
2023-01-19T14:58:31.568Z,20.30
2023-01-19T15:00:58.572Z,21.00
2023-01-19T15:03:38.602Z,16.50
2023-01-19T15:06:13.846Z,15.60
2023-01-19T15:08:40.731Z,14.90
2023-01-19T15:11:23.204Z,17.20
2023-01-19T15:13:50.146Z,17.50
2023-01-19T15:16:17.558Z,16.00
2023-01-19T15:18:44.432Z,17.30
2023-01-19T15:21:15.398Z,17.30
2023-01-19T15:23:42.355Z,19.80
2023-01-19T15:26:09.992Z,19.50
2023-01-19T15:28:36.975Z,19.90
2023-01-19T15:31:03.894Z,25.40
2023-01-19T15:33:31.033Z,30.30
2023-01-19T15:35:58.269Z,36.10
2023-01-19T15:38:26.072Z,41.40
2023-01-19T15:40:52.837Z,40.90
2023-01-19T15:43:21.054Z,43.50
2023-01-19T15:46:01.314Z,42.50
2023-01-19T15:48:28.236Z,37.60
2023-01-19T15:50:55.025Z,36.50
2023-01-19T15:53:23.613Z,38.20
2023-01-19T15:55:52.526Z,35.40
2023-01-19T15:58:20.218Z,31.70
2023-01-19T16:00:54.611Z,32.10
2023-01-19T16:03:21.629Z,31.90
2023-01-19T16:05:48.476Z,32.00
2023-01-19T18:27:06.083Z,36.20
2023-01-19T18:29:33.436Z,32.90
2023-01-19T18:32:00.377Z,31.80
2023-01-19T18:34:27.573Z,27.50
2023-01-19T18:36:54.748Z,28.20
2023-01-19T18:39:21.679Z,25.90
2023-01-19T18:41:48.787Z,25.50
2023-01-19T18:44:16.271Z,27.10
2023-01-19T18:46:43.220Z,28.10
2023-01-19T18:49:10.363Z,28.40
2023-01-19T18:51:37.828Z,29.00
2023-01-19T18:54:05.092Z,26.90
2023-01-19T18:56:32.234Z,25.50
2023-01-19T18:58:59.328Z,31.60
2023-01-19T19:01:28.093Z,20.80
2023-01-19T19:03:56.624Z,18.60
2023-01-19T19:06:24.106Z,20.70
2023-01-19T19:08:51.570Z,20.50
2023-01-19T19:11:19.373Z,21.40
2023-01-19T19:13:46.467Z,22.60
2023-01-19T19:16:13.584Z,22.10
2023-01-19T19:18:40.950Z,19.20
2023-01-19T19:21:09.083Z,21.50
2023-01-19T19:23:36.923Z,21.30
2023-01-19T19:26:08.625Z,23.00
2023-01-19T19:31:07.799Z,26.10
2023-01-19T19:33:35.173Z,28.20
2023-01-19T19:36:02.300Z,28.20
2023-01-19T19:38:29.288Z,30.00
2023-01-19T19:40:57.588Z,32.30
2023-01-19T19:43:24.889Z,33.40
2023-01-19T19:46:02.622Z,34.80
2023-01-19T19:48:29.670Z,32.60
2023-01-19T19:51:00.242Z,34.30
2023-01-19T19:53:29.109Z,32.30
2023-01-19T19:56:01.693Z,34.50
2023-01-19T19:58:29.045Z,31.60
2023-01-19T20:00:56.280Z,31.10
2023-01-19T20:03:26.238Z,30.50
2023-01-19T20:05:53.367Z,31.00
2023-01-19T20:08:20.417Z,32.40
2023-01-19T20:10:47.467Z,33.80
2023-01-19T20:13:17.965Z,33.90
2023-01-19T20:15:45.101Z,34.00
2023-01-19T20:18:12.084Z,36.30
2023-01-19T20:20:39.080Z,36.20
2023-01-19T20:23:07.918Z,35.10
2023-01-19T20:25:38.351Z,32.80
2023-01-19T20:28:05.380Z,34.00
2023-01-19T20:30:32.404Z,36.10
2023-01-19T20:32:59.365Z,39.40
2023-01-19T20:35:26.480Z,35.60
2023-01-19T20:37:53.520Z,41.90
2023-01-19T20:40:20.439Z,38.40
2023-01-19T20:42:47.519Z,40.50
2023-01-19T20:45:14.665Z,45.30
2023-01-19T20:47:41.674Z,40.40
2023-01-19T20:50:09.255Z,40.20
2023-01-19T20:52:36.368Z,40.60
2023-01-19T20:55:03.385Z,34.90
2023-01-19T20:57:30.347Z,37.60
2023-01-19T20:59:57.254Z,34.80
2023-01-19T21:02:24.754Z,35.90
2023-01-19T21:04:53.473Z,38.00
2023-01-19T21:07:20.499Z,41.50
2023-01-19T21:09:47.621Z,41.90
2023-01-19T21:12:16.125Z,36.40
2023-01-19T21:14:45.477Z,37.10
2023-01-19T21:17:12.504Z,33.20
2023-01-19T21:19:39.490Z,34.70
2023-01-19T21:22:06.486Z,32.00
2023-01-19T21:24:33.477Z,38.60
2023-01-19T21:27:00.437Z,38.10
2023-01-19T21:29:27.427Z,37.10
2023-01-19T21:31:54.472Z,37.40
2023-01-19T21:34:21.521Z,38.80
2023-01-19T21:36:48.501Z,38.00
2023-01-19T21:39:17.235Z,41.50
2023-01-19T21:41:45.383Z,37.80
2023-01-19T21:44:12.747Z,41.60
2023-01-19T21:46:39.807Z,43.00
2023-01-19T21:49:08.080Z,43.60
2023-01-19T21:51:36.965Z,36.90
2023-01-19T21:54:04.848Z,40.50
2023-01-19T21:56:31.999Z,40.70
2023-01-19T21:59:02.258Z,38.00
2023-01-19T22:01:29.414Z,38.10
2023-01-19T22:03:57.191Z,41.10
2023-01-19T22:06:24.668Z,36.10
2023-01-19T22:08:51.868Z,32.70
2023-01-19T22:11:19.830Z,29.70
2023-01-19T22:13:47.050Z,26.50
2023-01-19T22:16:16.653Z,25.30
2023-01-19T22:18:44.975Z,21.40
2023-01-19T22:21:15.744Z,19.60
2023-01-19T22:23:43.052Z,20.00
2023-01-19T22:26:11.335Z,19.70
2023-01-19T22:28:38.443Z,17.30
2023-01-19T22:31:10.932Z,15.60
2023-01-19T22:33:37.953Z,14.70
2023-01-19T22:36:22.022Z,14.60
2023-01-19T22:38:53.781Z,15.50
2023-01-19T22:43:48.221Z,14.80
2023-01-19T22:46:22.791Z,15.40
2023-01-19T22:48:50.026Z,15.70
2023-01-19T22:51:17.624Z,14.00
2023-01-19T22:53:44.757Z,15.60
2023-01-19T22:56:18.883Z,13.90
2023-01-19T22:58:46.288Z,14.50
2023-01-19T23:01:14.908Z,15.10
2023-01-19T23:03:42.041Z,14.50
2023-01-19T23:06:11.125Z,13.80
2023-01-19T23:08:38.308Z,15.80
2023-01-19T23:11:09.862Z,15.20
2023-01-19T23:16:04.490Z,15.80
2023-01-19T23:18:31.642Z,14.50
2023-01-19T23:21:12.735Z,15.80
2023-01-19T23:23:39.802Z,16.70
2023-01-19T23:26:08.570Z,15.10
2023-01-19T23:28:36.810Z,15.00
2023-01-19T23:31:16.368Z,16.90
2023-01-19T23:33:44.415Z,14.80
2023-01-19T23:36:12.138Z,15.10
2023-01-19T23:38:39.528Z,15.90
2023-01-19T23:41:06.505Z,14.50
2023-01-19T23:43:33.734Z,14.80
2023-01-19T23:46:04.840Z,15.30
2023-01-19T23:48:31.994Z,14.80
2023-01-19T23:50:58.941Z,17.30
2023-01-19T23:53:26.079Z,14.90
2023-01-19T23:55:53.009Z,14.70
2023-01-19T23:58:20.018Z,14.10
